createdAt,value
2022-08-23T00:02:26.386Z,100763.50
2022-08-23T00:05:08.687Z,100770.03
2022-08-23T00:07:41.758Z,100766.84
2022-08-23T00:10:14.393Z,100766.22
2022-08-23T00:12:40.989Z,100764.38
2022-08-23T00:15:08.896Z,100764.63
2022-08-23T00:17:36.358Z,100760.63
2022-08-23T00:20:09.878Z,100764.53
2022-08-23T00:22:38.187Z,100762.81
2022-08-23T00:25:07.165Z,100763.81
2022-08-23T00:27:35.049Z,100757.06
2022-08-23T00:30:03.001Z,100747.44
2022-08-23T00:32:32.978Z,100755.44
2022-08-23T00:35:00.648Z,100758.19
2022-08-23T00:37:32.100Z,100764.44
2022-08-23T00:40:00.038Z,100761.56
2022-08-23T00:42:50.709Z,100753.97
2022-08-23T00:45:41.628Z,100757.41
2022-08-23T00:48:08.494Z,100753.94
2022-08-23T00:50:42.637Z,100757.97
2022-08-23T00:53:38.060Z,100755.66
2022-08-23T00:56:09.032Z,100750.41
2022-08-23T00:58:36.159Z,100754.84
2022-08-23T01:01:06.184Z,100745.50
2022-08-23T01:03:38.717Z,100753.84
2022-08-23T01:06:16.977Z,100757.16
2022-08-23T01:08:48.756Z,100763.91
2022-08-23T01:11:32.894Z,100757.50
2022-08-23T01:14:11.931Z,100762.13
2022-08-23T01:16:46.163Z,100762.81
2022-08-23T01:19:21.872Z,100765.94
2022-08-23T01:22:02.299Z,100767.34
2022-08-23T01:25:05.972Z,100759.34
2022-08-23T01:27:15.890Z,100762.81
2022-08-23T01:29:42.512Z,100768.84
2022-08-23T01:32:09.858Z,100754.34
2022-08-23T01:34:37.043Z,100762.72
2022-08-23T01:37:11.500Z,100758.84
2022-08-23T01:39:38.359Z,100761.50
2022-08-23T01:42:07.544Z,100758.84
2022-08-23T01:44:34.905Z,100752.50
2022-08-23T01:47:01.356Z,100754.19
2022-08-23T01:49:27.875Z,100758.13
2022-08-23T01:51:55.514Z,100752.63
2022-08-23T01:54:22.215Z,100756.28
2022-08-23T01:56:49.174Z,100750.59
2022-08-23T01:59:15.690Z,100745.78
2022-08-23T02:01:42.255Z,100749.53
2022-08-23T02:04:08.867Z,100758.53
2022-08-23T02:06:35.358Z,100756.66
2022-08-23T02:09:03.562Z,100752.63
2022-08-23T02:11:42.480Z,100757.38
2022-08-23T02:14:12.757Z,100759.22
2022-08-23T02:16:53.733Z,100757.03
2022-08-23T02:19:31.125Z,100758.38
2022-08-23T02:21:57.646Z,100753.94
2022-08-23T02:24:25.334Z,100759.69
2022-08-23T02:26:56.672Z,100762.00
2022-08-23T02:29:25.876Z,100754.44
2022-08-23T02:31:52.537Z,100766.50
2022-08-23T02:34:19.907Z,100761.66
2022-08-23T02:36:47.496Z,100763.09
2022-08-23T02:39:16.065Z,100768.91
2022-08-23T02:41:42.857Z,100763.19
2022-08-23T02:44:10.970Z,100763.09
2022-08-23T02:46:38.698Z,100769.34
2022-08-23T02:49:05.339Z,100765.44
2022-08-23T02:51:32.916Z,100764.63
2022-08-23T02:53:59.423Z,100760.28
2022-08-23T02:56:25.901Z,100761.38
2022-08-23T02:58:54.404Z,100766.84
2022-08-23T03:01:39.993Z,100773.31
2022-08-23T03:04:09.398Z,100765.31
2022-08-23T03:06:36.358Z,100768.88
2022-08-23T03:09:05.038Z,100753.19
2022-08-23T03:11:31.744Z,100769.94
2022-08-23T03:13:58.420Z,100768.94
2022-08-23T03:16:25.428Z,100768.16
2022-08-23T03:18:52.326Z,100761.72
2022-08-23T03:21:20.785Z,100770.91
2022-08-23T03:23:48.513Z,100771.09
2022-08-23T03:26:16.129Z,100771.31
2022-08-23T03:28:44.709Z,100765.06
2022-08-23T03:31:13.013Z,100774.16
2022-08-23T03:33:40.334Z,100776.22
2022-08-23T03:36:10.472Z,100778.41
2022-08-23T03:38:39.416Z,100773.09
2022-08-23T03:41:06.598Z,100776.72
2022-08-23T03:43:34.565Z,100780.75
2022-08-23T03:46:01.047Z,100784.44
2022-08-23T03:48:27.633Z,100775.38
2022-08-23T03:50:54.950Z,100769.41
2022-08-23T03:53:23.698Z,100773.75
2022-08-23T03:55:53.249Z,100781.81
2022-08-23T03:58:21.559Z,100779.44
2022-08-23T04:00:48.316Z,100778.88
2022-08-23T04:03:14.905Z,100781.16
2022-08-23T04:05:41.424Z,100785.63
2022-08-23T04:08:10.055Z,100794.53
2022-08-23T04:10:39.168Z,100791.59
2022-08-23T04:13:07.344Z,100791.31
2022-08-23T04:15:33.877Z,100787.16
2022-08-23T04:18:01.691Z,100799.47
2022-08-23T04:20:29.002Z,100796.56
2022-08-23T04:22:56.510Z,100789.09
2022-08-23T04:25:32.853Z,100802.22
2022-08-23T04:28:02.932Z,100795.50
2022-08-23T04:30:29.770Z,100805.16
2022-08-23T04:32:56.282Z,100805.91
2022-08-23T04:35:23.744Z,100811.16
2022-08-23T04:37:50.624Z,100813.91
2022-08-23T04:40:36.271Z,100813.41
2022-08-23T04:43:03.799Z,100815.19
2022-08-23T04:45:32.492Z,100818.03
2022-08-23T04:47:59.252Z,100811.81
2022-08-23T04:50:26.147Z,100813.63
2022-08-23T04:52:53.042Z,100822.41
2022-08-23T04:55:19.824Z,100822.53
2022-08-23T04:57:46.330Z,100822.59
2022-08-23T05:00:15.079Z,100831.41
2022-08-23T05:02:41.770Z,100822.69
2022-08-23T05:05:11.057Z,100836.03
2022-08-23T05:07:42.731Z,100835.97
2022-08-23T05:10:12.849Z,100837.53
2022-08-23T05:12:39.698Z,100832.25
2022-08-23T05:15:06.902Z,100840.00
2022-08-23T05:17:33.374Z,100835.59
2022-08-23T05:19:59.859Z,100830.38
2022-08-23T05:22:26.493Z,100833.97
2022-08-23T05:24:53.010Z,100840.66
2022-08-23T05:27:19.482Z,100830.75
2022-08-23T05:29:46.461Z,100839.16
2022-08-23T05:32:13.060Z,100848.09
2022-08-23T05:34:39.661Z,100845.09
2022-08-23T05:37:06.162Z,100854.03
2022-08-23T05:39:36.440Z,100843.69
2022-08-23T05:42:04.792Z,100857.56
2022-08-23T05:44:36.174Z,100856.53
2022-08-23T05:47:11.265Z,100842.13
2022-08-23T05:49:39.513Z,100853.72
2022-08-23T05:52:07.885Z,100856.91
2022-08-23T05:54:35.269Z,100860.28
2022-08-23T05:57:03.233Z,100857.44
2022-08-23T05:59:30.049Z,100866.44
2022-08-23T06:01:57.352Z,100869.56
2022-08-23T06:04:23.959Z,100864.06
2022-08-23T06:06:50.487Z,100861.78
2022-08-23T06:09:18.245Z,100878.00
2022-08-23T06:11:48.530Z,100877.94
2022-08-23T06:14:15.553Z,100874.19
2022-08-23T06:16:46.436Z,100884.41
2022-08-23T06:19:14.351Z,100884.41
2022-08-23T06:21:41.792Z,100884.19
2022-08-23T06:24:08.434Z,100885.34
2022-08-23T06:26:38.893Z,100876.31
2022-08-23T06:29:09.335Z,100886.69
2022-08-23T06:31:47.344Z,100884.91
2022-08-23T06:34:21.761Z,100886.66
2022-08-23T06:36:52.814Z,100894.91
2022-08-23T06:39:21.206Z,100884.78
2022-08-23T06:41:50.496Z,100895.09
2022-08-23T06:44:18.844Z,100901.81
2022-08-23T06:46:47.873Z,100900.66
2022-08-23T06:49:14.813Z,100908.53
2022-08-23T06:51:46.000Z,100901.28
2022-08-23T06:54:15.240Z,100901.66
2022-08-23T06:56:43.542Z,100900.50
2022-08-23T06:59:10.319Z,100901.16
2022-08-23T07:01:46.352Z,100904.16
2022-08-23T07:04:17.961Z,100904.94
2022-08-23T07:06:44.682Z,100904.59
2022-08-23T07:09:11.500Z,100907.28
2022-08-23T07:11:39.377Z,100903.31
2022-08-23T07:14:10.434Z,100904.81
2022-08-23T07:16:48.054Z,100906.22
2022-08-23T07:19:15.297Z,100913.88
2022-08-23T07:21:43.022Z,100912.09
2022-08-23T07:24:10.078Z,100911.69
2022-08-23T07:26:39.155Z,100911.38
2022-08-23T07:29:09.965Z,100906.25
2022-08-23T07:31:42.162Z,100909.97
2022-08-23T07:34:09.037Z,100919.38
2022-08-23T07:36:39.134Z,100915.72
2022-08-23T07:39:07.530Z,100919.28
2022-08-23T07:41:35.670Z,100916.25
2022-08-23T07:44:04.455Z,100922.31
2022-08-23T07:46:33.211Z,100924.25
2022-08-23T07:49:01.799Z,100917.88
2022-08-23T07:51:31.631Z,100915.78
2022-08-23T07:53:58.697Z,100918.88
2022-08-23T07:56:25.169Z,100914.81
2022-08-23T07:58:52.026Z,100912.91
2022-08-23T08:01:23.463Z,100920.25
2022-08-23T08:03:55.145Z,100921.78
2022-08-23T08:06:46.157Z,100921.13
2022-08-23T08:09:14.617Z,100923.25
2022-08-23T08:11:44.183Z,100928.94
2022-08-23T08:14:11.598Z,100920.53
2022-08-23T08:16:45.523Z,100927.69
2022-08-23T08:19:15.302Z,100930.03
2022-08-23T08:21:42.869Z,100931.66
2022-08-23T08:24:10.556Z,100929.41
2022-08-23T08:26:37.377Z,100934.03
2022-08-23T08:29:04.334Z,100925.41
2022-08-23T08:31:30.891Z,100928.44
2022-08-23T08:33:57.695Z,100933.94
2022-08-23T08:36:44.008Z,100939.97
2022-08-23T08:39:14.396Z,100936.41
2022-08-23T08:41:57.450Z,100945.31
2022-08-23T08:44:52.188Z,100942.78
2022-08-23T08:47:37.286Z,100931.06
2022-08-23T08:50:06.578Z,100946.91
2022-08-23T08:52:36.818Z,100945.91
2022-08-23T08:55:19.538Z,100946.97
2022-08-23T08:57:48.246Z,100937.75
2022-08-23T09:00:31.571Z,100940.84
2022-08-23T09:03:00.762Z,100935.44
2022-08-23T09:05:31.688Z,100943.88
2022-08-23T09:08:42.171Z,100945.94
2022-08-23T09:11:22.478Z,100943.81
2022-08-23T09:14:20.012Z,100941.75
2022-08-23T09:16:53.913Z,100939.09
2022-08-23T09:19:23.048Z,100929.22
2022-08-23T09:22:02.383Z,100927.69
2022-08-23T09:24:30.604Z,100933.16
2022-08-23T09:26:57.585Z,100930.63
2022-08-23T09:29:36.228Z,100932.31
2022-08-23T09:32:07.360Z,100929.13
2022-08-23T09:34:42.571Z,100925.09
2022-08-23T09:37:16.298Z,100937.50
2022-08-23T09:39:51.840Z,100936.13
2022-08-23T09:42:29.717Z,100926.19
2022-08-23T09:44:57.016Z,100934.09
2022-08-23T09:47:33.812Z,100928.72
2022-08-23T09:50:39.859Z,100937.34
2022-08-23T09:53:12.159Z,100932.09
2022-08-23T09:55:48.618Z,100928.13
2022-08-23T09:58:21.998Z,100926.53
2022-08-23T10:01:07.607Z,100918.38
2022-08-23T10:03:34.194Z,100927.31
2022-08-23T10:06:02.413Z,100926.38
2022-08-23T10:08:33.571Z,100919.94
2022-08-23T10:11:05.941Z,100925.72
2022-08-23T10:13:36.679Z,100919.88
2022-08-23T10:16:25.977Z,100920.81
2022-08-23T10:19:13.390Z,100924.44
2022-08-23T10:21:57.467Z,100920.09
2022-08-23T10:24:28.244Z,100918.38
2022-08-23T10:27:45.969Z,100915.84
2022-08-23T10:30:17.244Z,100909.19
2022-08-23T10:33:03.723Z,100909.38
2022-08-23T10:35:53.861Z,100918.56
2022-08-23T10:38:38.396Z,100921.91
2022-08-23T10:41:41.948Z,100919.56
2022-08-23T10:44:42.612Z,100913.25
2022-08-23T10:47:27.496Z,100912.47
2022-08-23T10:49:55.896Z,100917.41
2022-08-23T10:52:31.096Z,100909.91
2022-08-23T10:55:17.151Z,100909.06
2022-08-23T10:57:47.614Z,100906.84
2022-08-23T11:00:21.600Z,100910.03
2022-08-23T11:03:03.277Z,100904.38
2022-08-23T11:05:33.707Z,100900.53
2022-08-23T11:08:05.557Z,100912.03
2022-08-23T11:10:53.576Z,100910.88
2022-08-23T11:13:29.481Z,100903.63
2022-08-23T11:16:01.035Z,100901.38
2022-08-23T11:18:33.822Z,100895.88
2022-08-23T11:21:10.782Z,100901.38
2022-08-23T11:23:47.810Z,100905.09
2022-08-23T11:26:28.371Z,100898.63
2022-08-23T11:29:01.131Z,100903.94
2022-08-23T11:31:31.999Z,100893.25
2022-08-23T11:34:11.227Z,100894.16
2022-08-23T11:36:38.610Z,100896.38
2022-08-23T11:39:11.537Z,100899.63
2022-08-23T11:41:55.935Z,100888.47
2022-08-23T11:44:38.342Z,100884.81
2022-08-23T11:47:11.138Z,100881.78
2022-08-23T11:49:44.223Z,100880.53
2022-08-23T11:52:47.457Z,100871.56
2022-08-23T11:55:17.551Z,100877.94
2022-08-23T11:58:08.734Z,100877.19
2022-08-23T12:00:47.421Z,100878.09
2022-08-23T12:03:32.490Z,100875.50
2022-08-23T12:06:08.227Z,100883.03
2022-08-23T12:08:51.704Z,100869.69
2022-08-23T12:11:20.140Z,100872.72
2022-08-23T12:13:56.977Z,100877.66
2022-08-23T12:16:25.966Z,100873.50
2022-08-23T12:19:00.961Z,100874.59
2022-08-23T12:21:40.208Z,100871.28
2022-08-23T12:24:32.306Z,100866.25
2022-08-23T12:27:21.445Z,100868.84
2022-08-23T12:30:11.124Z,100870.47
2022-08-23T12:33:23.649Z,100866.97
2022-08-23T12:36:16.711Z,100859.06
2022-08-23T12:39:09.232Z,100857.09
2022-08-23T12:41:48.701Z,100854.03
2022-08-23T12:44:20.206Z,100854.19
2022-08-23T12:46:49.561Z,100855.06
2022-08-23T12:49:35.047Z,100859.91
2022-08-23T12:52:08.231Z,100853.13
2022-08-23T12:54:34.650Z,100860.03
2022-08-23T12:57:01.956Z,100856.56
2022-08-23T12:59:40.174Z,100856.75
2022-08-23T13:02:18.416Z,100854.94
2022-08-23T13:04:44.901Z,100843.13
2022-08-23T13:07:19.682Z,100844.84
2022-08-23T13:09:53.683Z,100850.22
2022-08-23T13:12:21.913Z,100842.91
2022-08-23T13:14:51.190Z,100844.19
2022-08-23T13:17:36.667Z,100849.22
2022-08-23T13:20:04.094Z,100852.81
2022-08-23T13:22:55.636Z,100843.97
2022-08-23T13:25:31.584Z,100847.56
2022-08-23T13:28:06.631Z,100852.22
2022-08-23T13:30:36.726Z,100853.03
2022-08-23T13:33:07.659Z,100847.53
2022-08-23T13:35:37.748Z,100851.09
2022-08-23T13:38:18.299Z,100849.38
2022-08-23T13:41:03.781Z,100843.09
2022-08-23T13:43:45.441Z,100845.44
2022-08-23T13:46:23.123Z,100841.53
2022-08-23T13:48:53.033Z,100843.00
2022-08-23T13:52:24.603Z,100835.41
2022-08-23T13:54:50.893Z,100839.88
2022-08-23T13:57:20.765Z,100837.75
2022-08-23T13:59:55.047Z,100834.06
2022-08-23T14:02:23.833Z,100837.97
2022-08-23T14:04:50.928Z,100843.19
2022-08-23T14:07:18.255Z,100832.75
2022-08-23T14:09:45.231Z,100838.25
2022-08-23T14:12:17.134Z,100833.88
2022-08-23T14:14:45.717Z,100844.06
2022-08-23T14:17:12.853Z,100831.38
2022-08-23T14:22:33.105Z,100832.34
2022-08-23T14:24:59.590Z,100827.19
2022-08-23T14:27:26.357Z,100831.28
2022-08-23T14:29:52.910Z,100833.75
2022-08-23T14:32:19.446Z,100825.78
2022-08-23T14:34:45.922Z,100830.88
2022-08-23T14:39:59.485Z,100825.66
2022-08-23T14:42:26.293Z,100817.28
2022-08-23T14:44:52.857Z,100827.81
2022-08-23T14:47:19.556Z,100830.88
2022-08-23T14:49:46.128Z,100821.47
2022-08-23T14:52:14.621Z,100821.81
2022-08-23T14:54:42.039Z,100824.25
2022-08-23T14:57:08.558Z,100830.88
2022-08-23T14:59:35.581Z,100829.09
2022-08-23T15:02:03.658Z,100828.72
2022-08-23T15:04:34.646Z,100822.31
2022-08-23T15:07:19.105Z,100818.00
2022-08-23T15:09:51.281Z,100820.28
2022-08-23T15:15:12.131Z,100817.66
2022-08-23T15:17:52.148Z,100821.88
2022-08-23T15:20:25.350Z,100814.88
2022-08-23T15:23:05.463Z,100820.72
2022-08-23T15:25:35.363Z,100825.63
2022-08-23T15:28:03.484Z,100816.72
2022-08-23T15:30:33.510Z,100819.44
2022-08-23T15:33:00.579Z,100816.91
2022-08-23T15:35:28.658Z,100824.09
2022-08-23T15:37:57.269Z,100825.66
2022-08-23T15:40:25.602Z,100817.06
2022-08-23T15:42:52.414Z,100806.09
2022-08-23T15:45:19.520Z,100812.38
2022-08-23T15:47:53.172Z,100812.47
2022-08-23T15:50:23.764Z,100809.81
2022-08-23T15:52:50.839Z,100804.47
2022-08-23T15:55:18.238Z,100802.41
2022-08-23T15:57:48.501Z,100806.38
2022-08-23T16:00:18.605Z,100798.81
2022-08-23T16:03:18.792Z,100808.66
2022-08-23T16:05:33.087Z,100815.09
2022-08-23T16:08:00.070Z,100804.22
2022-08-23T16:10:28.328Z,100798.13
2022-08-23T16:12:55.281Z,100789.53
2022-08-23T16:15:22.150Z,100795.13
2022-08-23T16:17:48.968Z,100807.63
2022-08-23T16:20:15.586Z,100797.91
2022-08-23T16:22:42.139Z,100796.94
2022-08-23T16:25:09.396Z,100803.56
2022-08-23T16:27:36.537Z,100808.63
2022-08-23T16:30:05.369Z,100807.03
2022-08-23T16:32:32.113Z,100805.59
2022-08-23T16:34:58.617Z,100807.81
2022-08-23T16:37:25.540Z,100802.38
2022-08-23T16:39:52.302Z,100803.22
2022-08-23T16:42:19.002Z,100804.09
2022-08-23T16:44:45.517Z,100806.66
2022-08-23T16:47:12.763Z,100799.59
2022-08-23T16:49:40.026Z,100800.75
2022-08-23T16:52:06.840Z,100794.84
2022-08-23T16:54:33.442Z,100808.50
2022-08-23T16:57:00.006Z,100810.97
2022-08-23T16:59:26.484Z,100810.75
2022-08-23T17:01:58.808Z,100814.94
2022-08-23T17:04:30.377Z,100812.03
2022-08-23T17:06:58.032Z,100800.59
2022-08-23T17:09:27.881Z,100802.81
2022-08-23T17:11:58.592Z,100806.66
2022-08-23T17:14:26.171Z,100807.31
2022-08-23T17:16:53.043Z,100798.72
2022-08-23T17:19:19.681Z,100802.16
2022-08-23T17:21:46.194Z,100805.50
2022-08-23T17:24:12.797Z,100815.38
2022-08-23T17:26:39.591Z,100810.53
2022-08-23T17:29:09.311Z,100813.66
2022-08-23T17:31:37.863Z,100818.94
2022-08-23T17:34:05.357Z,100832.00
2022-08-23T17:36:47.630Z,100829.25
2022-08-23T17:39:17.738Z,100831.59
2022-08-23T17:41:45.652Z,100830.94
2022-08-23T17:44:12.812Z,100835.66
2022-08-23T17:46:41.616Z,100831.06
2022-08-23T17:49:09.164Z,100837.63
2022-08-23T17:51:36.828Z,100836.31
2022-08-23T17:54:04.928Z,100842.16
2022-08-23T17:56:31.489Z,100838.06
2022-08-23T17:58:58.137Z,100845.59
2022-08-23T18:01:24.745Z,100838.69
2022-08-23T18:03:51.275Z,100844.94
2022-08-23T18:06:18.199Z,100849.13
2022-08-23T18:08:45.998Z,100854.66
2022-08-23T18:11:13.783Z,100851.97
2022-08-23T18:13:40.359Z,100853.50
2022-08-23T18:16:07.638Z,100860.63
2022-08-23T18:18:34.565Z,100858.75
2022-08-23T18:21:06.220Z,100857.03
2022-08-23T18:23:32.845Z,100869.69
2022-08-23T18:26:08.555Z,100863.59
2022-08-23T18:28:35.241Z,100864.59
2022-08-23T18:31:03.717Z,100862.84
2022-08-23T18:33:46.321Z,100864.41
2022-08-23T18:36:13.402Z,100872.94
2022-08-23T18:38:39.936Z,100874.09
2022-08-23T18:41:06.638Z,100872.28
2022-08-23T18:43:37.596Z,100876.94
2022-08-23T18:46:05.352Z,100871.38
2022-08-23T18:48:32.051Z,100886.94
2022-08-23T18:50:58.621Z,100886.75
2022-08-23T18:53:25.230Z,100879.84
2022-08-23T18:55:52.401Z,100883.69
2022-08-23T18:58:20.041Z,100894.75
2022-08-23T19:00:47.801Z,100881.75
2022-08-23T19:03:17.728Z,100885.78
2022-08-23T19:05:45.300Z,100890.84
2022-08-23T19:08:12.759Z,100902.56
2022-08-23T19:10:41.392Z,100908.78
2022-08-23T19:13:09.105Z,100905.53
2022-08-23T19:15:36.890Z,100911.38
2022-08-23T19:18:04.267Z,100916.53
2022-08-23T19:20:30.806Z,100909.63
2022-08-23T19:22:57.594Z,100921.63
2022-08-23T19:25:24.869Z,100923.53
2022-08-23T19:27:51.954Z,100921.19
2022-08-23T19:30:18.552Z,100923.84
2022-08-23T19:32:45.209Z,100933.16
2022-08-23T19:35:13.649Z,100932.88
2022-08-23T19:37:40.152Z,100934.69
2022-08-23T19:40:07.659Z,100931.78
2022-08-23T19:42:37.018Z,100940.81
2022-08-23T19:45:04.933Z,100934.38
2022-08-23T19:47:31.482Z,100938.91
2022-08-23T19:49:58.672Z,100940.72
2022-08-23T19:52:25.481Z,100939.16
2022-08-23T19:54:51.962Z,100948.97
2022-08-23T19:57:18.494Z,100946.78
2022-08-23T19:59:45.448Z,100953.59
2022-08-23T20:02:13.857Z,100960.16
2022-08-23T20:04:40.471Z,100950.81
2022-08-23T20:07:07.825Z,100951.19
2022-08-23T20:09:50.673Z,100963.69
2022-08-23T20:12:17.692Z,100921.47
2022-08-23T20:14:46.022Z,100933.88
2022-08-23T20:17:12.873Z,100961.72
2022-08-23T20:19:43.784Z,100971.09
2022-08-23T20:22:37.629Z,100896.03
2022-08-23T20:25:36.063Z,100960.75
2022-08-23T20:28:08.794Z,100976.13
2022-08-23T20:30:36.247Z,100957.97
2022-08-23T20:33:03.768Z,100972.19
2022-08-23T20:35:30.492Z,100967.84
2022-08-23T20:38:08.387Z,100976.06
2022-08-23T20:40:54.083Z,100985.13
2022-08-23T20:43:27.374Z,100979.88
2022-08-23T20:45:54.698Z,100972.41
2022-08-23T20:48:21.926Z,100980.56
2022-08-23T20:50:51.930Z,100962.53
2022-08-23T20:53:18.673Z,100950.88
2022-08-23T20:55:46.115Z,100981.94
2022-08-23T20:58:16.045Z,100977.53
2022-08-23T21:00:42.594Z,100981.16
2022-08-23T21:03:09.353Z,100969.75
2022-08-23T21:05:35.860Z,100974.66
2022-08-23T21:08:03.461Z,100978.25
2022-08-23T21:10:30.677Z,100982.56
2022-08-23T21:12:57.211Z,100984.22
2022-08-23T21:15:23.719Z,100975.84
2022-08-23T21:17:50.217Z,100988.28
2022-08-23T21:20:16.817Z,100991.41
2022-08-23T21:22:43.472Z,100988.50
2022-08-23T21:25:10.221Z,100990.63
2022-08-23T21:27:36.801Z,100982.19
2022-08-23T21:30:05.633Z,100996.38
2022-08-23T21:32:32.509Z,100993.47
2022-08-23T21:34:59.612Z,100979.84
2022-08-23T21:37:26.713Z,100990.91
2022-08-23T21:39:53.243Z,100985.03
2022-08-23T21:42:23.143Z,100996.38
2022-08-23T21:44:50.278Z,100991.94
2022-08-23T21:47:16.769Z,100988.34
2022-08-23T21:49:43.476Z,100995.97
2022-08-23T21:52:09.949Z,100983.25
2022-08-23T21:54:40.220Z,100990.59
2022-08-23T21:57:09.386Z,100985.50
2022-08-23T21:59:35.912Z,100982.91
2022-08-23T22:02:02.622Z,100988.34
2022-08-23T22:04:30.096Z,100988.81
2022-08-23T22:06:59.920Z,100995.91
2022-08-23T22:09:31.204Z,100995.06
2022-08-23T22:12:00.336Z,100989.34
2022-08-23T22:14:31.301Z,100994.00
2022-08-23T22:16:59.187Z,100992.63
2022-08-23T22:19:25.749Z,100997.81
2022-08-23T22:21:52.794Z,100992.19
2022-08-23T22:24:25.260Z,100997.50
2022-08-23T22:26:52.788Z,100996.41
2022-08-23T22:29:19.389Z,100992.63
2022-08-23T22:31:47.730Z,101000.56
2022-08-23T22:34:14.674Z,100994.31
2022-08-23T22:36:42.061Z,100996.22
2022-08-23T22:39:08.991Z,100987.75
2022-08-23T22:41:35.519Z,100991.72
2022-08-23T22:44:03.556Z,100991.59
2022-08-23T22:46:31.906Z,100994.25
2022-08-23T22:48:58.468Z,100992.34
2022-08-23T22:51:28.667Z,100991.59
2022-08-23T22:53:58.864Z,101000.09
2022-08-23T22:56:29.369Z,101005.63
2022-08-23T22:58:56.463Z,101008.75
2022-08-23T23:01:34.147Z,101005.53
2022-08-23T23:04:02.492Z,101007.78
2022-08-23T23:06:29.593Z,101010.38
2022-08-23T23:08:56.722Z,101004.19
2022-08-23T23:11:24.172Z,101013.25
2022-08-23T23:13:51.155Z,101010.59
2022-08-23T23:16:21.554Z,101016.38
2022-08-23T23:19:11.391Z,101008.69
2022-08-23T23:21:41.498Z,101021.22
2022-08-23T23:24:10.649Z,101008.25
2022-08-23T23:26:38.083Z,101013.88
2022-08-23T23:29:06.322Z,101015.31
2022-08-23T23:31:32.798Z,101011.50
2022-08-23T23:33:59.306Z,101017.47
2022-08-23T23:36:25.870Z,101019.00
2022-08-23T23:38:52.556Z,101020.16
2022-08-23T23:41:21.166Z,101016.50
2022-08-23T23:43:47.740Z,101017.97
2022-08-23T23:46:15.940Z,101012.03
2022-08-23T23:48:44.666Z,101025.72
2022-08-23T23:51:14.256Z,101019.28
2022-08-23T23:53:41.148Z,101012.44
2022-08-23T23:56:10.497Z,101021.72
2022-08-23T23:58:37.948Z,101017.56
